Time;durP1;ratioP1;P1;durP2;ratioP2;P2;SDS_P1;SDS_P2;PMS_P1;PMS_P2;Temp;Humidity;BMP_temperature;BMP_pressure;BME280_temperature;BME280_humidity;BME280_pressure;Samples;Min_cycle;Max_cycle;Signal;HPM_P1;HPM_P2
2022/01/25 00:24:29;;;;;;;54.28;30.08;;;5.50;90.90;;;;;;4982378;28;20050;-59
2022/01/25 00:32:30;;;;;;;48.60;28.35;;;5.40;91.00;;;;;;4965708;28;20097;-59
2022/01/25 00:34:57;;;;;;;50.42;30.73;;;5.50;91.20;;;;;;4981599;28;20088;-59
2022/01/25 00:37:25;;;;;;;50.00;29.70;;;5.50;91.20;;;;;;4979658;28;20058;-59
2022/01/25 00:39:52;;;;;;;51.38;28.65;;;5.50;91.20;;;;;;4980696;28;20766;-59
2022/01/25 00:42:19;;;;;;;54.15;29.85;;;5.50;91.10;;;;;;4980506;28;20064;-59
2022/01/25 00:44:48;;;;;;;50.42;30.90;;;5.50;91.10;;;;;;4982093;28;20061;-59
2022/01/25 00:47:16;;;;;;;52.83;30.27;;;5.50;91.20;;;;;;4981707;28;20125;-59
2022/01/25 00:49:46;;;;;;;51.25;29.08;;;5.50;91.10;;;;;;4981366;28;20765;-59
2022/01/25 00:52:23;;;;;;;50.58;29.02;;;5.50;91.00;;;;;;4980920;28;20053;-59
2022/01/25 00:54:52;;;;;;;52.42;30.15;;;5.50;91.00;;;;;;4981120;28;20058;-59
2022/01/25 00:57:19;;;;;;;51.58;28.77;;;5.50;91.00;;;;;;4981297;28;20055;-59
2022/01/25 00:59:48;;;;;;;52.13;30.63;;;5.50;91.10;;;;;;4980666;28;20485;-59
2022/01/25 01:02:16;;;;;;;50.03;29.10;;;5.50;91.10;;;;;;4980849;28;20054;-59
2022/01/25 01:04:43;;;;;;;54.78;31.10;;;5.50;91.10;;;;;;4980893;28;22263;-59
2022/01/25 01:07:12;;;;;;;51.08;29.45;;;5.50;91.00;;;;;;4979094;28;20054;-59
2022/01/25 01:09:41;;;;;;;51.28;28.70;;;5.50;91.30;;;;;;4981382;28;20050;-59
2022/01/25 01:12:15;;;;;;;52.55;29.92;;;5.50;91.00;;;;;;4980212;28;20465;-60
2022/01/25 01:31:26;;;;;;;52.78;30.23;;;5.50;90.80;;;;;;4980622;28;20133;-59
2022/01/25 01:45:25;;;;;;;57.00;31.55;;;5.50;91.00;;;;;;4975640;28;20145;-59
2022/01/25 01:48:00;;;;;;;49.10;30.10;;;5.50;91.00;;;;;;4980324;28;20047;-59
2022/01/25 01:50:32;;;;;;;50.08;30.38;;;5.40;91.00;;;;;;4980039;28;20054;-59
2022/01/25 01:53:00;;;;;;;52.58;29.05;;;5.40;91.00;;;;;;4979482;28;20050;-59
2022/01/25 01:55:27;;;;;;;52.45;30.05;;;5.40;91.00;;;;;;4980382;28;20066;-59
2022/01/25 01:57:55;;;;;;;54.13;29.70;;;5.40;91.00;;;;;;4979291;28;20058;-59
2022/01/25 02:00:27;;;;;;;51.83;29.85;;;5.40;91.00;;;;;;4979279;28;20061;-59
2022/01/25 02:02:54;;;;;;;50.90;31.48;;;5.40;91.00;;;;;;4979137;28;20065;-59
2022/01/25 02:05:21;;;;;;;52.05;28.83;;;5.50;91.10;;;;;;4980508;28;20057;-59
2022/01/25 02:07:48;;;;;;;50.45;30.23;;;5.40;91.10;;;;;;4979761;28;20058;-59
2022/01/25 02:10:15;;;;;;;55.50;30.95;;;5.40;91.10;;;;;;4980733;28;20054;-59
2022/01/25 02:12:45;;;;;;;52.33;30.33;;;5.40;91.10;;;;;;4979796;28;20065;-59
2022/01/25 02:15:13;;;;;;;52.63;28.98;;;5.50;91.20;;;;;;4979312;28;20125;-59
2022/01/25 02:17:59;;;;;;;48.30;29.15;;;5.40;91.20;;;;;;4977818;28;20050;-59
2022/01/25 02:23:18;;;;;;;53.53;28.63;;;5.30;91.10;;;;;;4980188;28;20047;-59
2022/01/25 02:25:46;;;;;;;52.78;31.30;;;5.30;91.20;;;;;;4980653;28;20112;-59
2022/01/25 02:28:12;;;;;;;55.38;32.05;;;5.30;91.20;;;;;;4979803;28;20081;-59
2022/01/25 02:30:40;;;;;;;49.78;30.33;;;5.30;91.20;;;;;;4980720;28;20054;-59
2022/01/25 02:33:07;;;;;;;53.15;31.08;;;5.40;91.20;;;;;;4980771;28;20046;-59
2022/01/25 02:35:35;;;;;;;51.50;29.98;;;5.40;91.30;;;;;;4980608;28;20058;-59
2022/01/25 02:38:02;;;;;;;48.92;28.38;;;5.40;91.30;;;;;;4980439;28;20974;-59
2022/01/25 02:40:29;;;;;;;51.25;29.10;;;5.40;91.30;;;;;;4983940;28;20077;-59
2022/01/25 02:42:56;;;;;;;48.90;29.52;;;5.40;91.30;;;;;;4983335;28;20050;-59
2022/01/25 02:45:29;;;;;;;54.60;31.77;;;5.40;91.30;;;;;;4983675;28;20581;-59
2022/01/25 02:50:42;;;;;;;52.80;31.23;;;5.40;91.40;;;;;;4983433;28;20054;-59
2022/01/25 02:53:09;;;;;;;50.65;30.80;;;5.40;91.40;;;;;;4982512;28;20413;-59
2022/01/25 02:55:38;;;;;;;51.08;30.42;;;5.40;91.40;;;;;;4982585;28;20065;-59
2022/01/25 02:58:05;;;;;;;54.63;30.85;;;5.50;91.50;;;;;;4982692;28;20057;-59
2022/01/25 03:00:33;;;;;;;50.85;30.13;;;5.40;91.40;;;;;;4983203;28;20090;-59
2022/01/25 03:02:59;;;;;;;49.08;29.35;;;5.40;91.50;;;;;;4981643;28;20058;-59
2022/01/25 03:05:27;;;;;;;52.70;30.20;;;5.40;91.60;;;;;;4981821;28;20058;-59
2022/01/25 03:07:57;;;;;;;48.25;29.67;;;5.40;91.60;;;;;;4981623;28;20053;-59
2022/01/25 03:10:24;;;;;;;48.10;28.60;;;5.50;91.60;;;;;;4980699;28;20057;-59
2022/01/25 03:12:55;;;;;;;54.00;28.55;;;5.50;91.60;;;;;;4981348;28;20061;-59
2022/01/25 03:15:41;;;;;;;50.72;29.65;;;5.60;91.80;;;;;;4982336;28;20173;-59
2022/01/25 03:18:14;;;;;;;50.90;31.70;;;5.60;91.50;;;;;;4977938;28;20077;-59
2022/01/25 03:20:50;;;;;;;;;;;5.60;91.40;;;;;;4983293;28;20161;-59
2022/01/25 03:23:20;;;;;;;47.92;28.38;;;5.60;91.20;;;;;;4982879;28;21667;-59
2022/01/25 03:25:48;;;;;;;50.17;28.65;;;5.60;91.30;;;;;;4982651;28;20054;-59
2022/01/25 03:28:15;;;;;;;52.65;31.45;;;5.60;91.30;;;;;;4983246;28;22193;-59
2022/01/25 03:30:42;;;;;;;48.05;28.00;;;5.60;91.20;;;;;;4983403;28;20053;-59
2022/01/25 03:33:09;;;;;;;49.40;28.38;;;5.60;91.30;;;;;;4982942;28;20088;-59
2022/01/25 03:35:36;;;;;;;51.15;28.85;;;5.60;91.30;;;;;;4982912;28;20053;-59
2022/01/25 03:38:04;;;;;;;49.67;29.60;;;5.60;91.30;;;;;;4981535;28;20046;-60
2022/01/25 03:40:32;;;;;;;54.30;30.05;;;5.60;91.30;;;;;;4983189;28;20051;-59
2022/01/25 03:43:01;;;;;;;52.75;30.23;;;5.60;91.30;;;;;;4982785;28;20046;-59
2022/01/25 03:45:31;;;;;;;50.05;29.83;;;5.60;91.30;;;;;;4982678;28;20058;-59
2022/01/25 03:49:48;;;;;;;51.53;30.08;;;5.60;91.30;;;;;;4981158;28;20054;-59
2022/01/25 03:50:47;;;;;;;51.53;29.45;;;5.50;91.30;;;;;;4980872;28;20153;-59
2022/01/25 03:53:17;;;;;;;49.72;29.48;;;5.50;91.30;;;;;;4982267;28;20069;-59
2022/01/25 03:55:46;;;;;;;51.92;31.00;;;5.50;91.40;;;;;;4983113;28;20842;-59
2022/01/25 03:58:13;;;;;;;53.33;30.77;;;5.50;91.40;;;;;;4981483;28;20054;-59
2022/01/25 04:00:41;;;;;;;50.50;28.92;;;5.50;91.50;;;;;;4982676;28;20054;-59
2022/01/25 04:03:14;;;;;;;48.95;29.20;;;5.50;91.60;;;;;;4981197;28;20058;-59
2022/01/25 04:05:50;;;;;;;54.28;29.13;;;5.50;91.60;;;;;;4981894;28;20058;-59
2022/01/25 04:08:19;;;;;;;52.08;30.30;;;5.40;91.60;;;;;;4981540;28;20067;-59
2022/01/25 04:10:47;;;;;;;51.15;30.05;;;5.40;91.60;;;;;;4980056;28;20144;-59
2022/01/25 04:13:14;;;;;;;51.30;30.27;;;5.40;91.60;;;;;;4981531;28;20060;-59
2022/01/25 04:15:44;;;;;;;53.65;28.90;;;5.50;91.60;;;;;;4982745;28;20050;-59
2022/01/25 04:18:27;;;;;;;51.28;28.25;;;5.50;91.60;;;;;;4981551;28;20140;-59
2022/01/25 04:21:00;;;;;;;49.97;28.08;;;5.50;91.70;;;;;;4981396;28;20529;-59
2022/01/25 04:26:12;;;;;;;52.05;29.58;;;5.50;91.80;;;;;;4981281;28;20046;-59
2022/01/25 04:28:39;;;;;;;51.40;28.70;;;5.60;91.80;;;;;;4981703;28;20058;-59
2022/01/25 04:31:06;;;;;;;48.53;29.17;;;5.60;91.70;;;;;;4982163;28;20050;-59
2022/01/25 04:33:42;;;;;;;52.40;29.50;;;5.60;91.60;;;;;;4981542;28;20184;-59
2022/01/25 04:36:38;;;;;;;56.70;30.40;;;5.60;91.70;;;;;;4979240;28;20050;-59
2022/01/25 04:50:05;;;;;;;52.70;30.13;;;5.60;91.80;;;;;;4982434;28;20047;-60
2022/01/25 04:52:39;;;;;;;51.15;28.45;;;5.60;91.90;;;;;;4981910;28;20059;-59
2022/01/25 04:55:14;;;;;;;50.67;29.73;;;5.60;91.70;;;;;;4982448;28;20508;-59
2022/01/25 04:57:48;;;;;;;53.97;29.77;;;5.70;91.80;;;;;;4981012;28;20700;-59
2022/01/25 05:00:18;;;;;;;53.08;29.67;;;5.70;91.80;;;;;;4980303;28;20054;-59
2022/01/25 05:02:51;;;;;;;52.50;30.58;;;5.60;91.70;;;;;;4979645;28;21283;-59
2022/01/25 05:05:23;;;;;;;53.03;30.85;;;5.60;91.70;;;;;;4981192;28;20050;-59
2022/01/25 05:07:57;;;;;;;52.35;29.50;;;5.60;91.80;;;;;;4980848;28;20050;-59
2022/01/25 05:10:24;;;;;;;;;;;5.60;91.80;;;;;;4981773;28;20514;-59
2022/01/25 05:13:05;;;;;;;49.33;28.35;;;5.60;91.90;;;;;;4981124;28;19930;-59
2022/01/25 05:16:04;;;;;;;50.63;29.35;;;5.60;91.90;;;;;;4981038;28;20058;-59
2022/01/25 05:18:41;;;;;;;52.03;29.17;;;5.60;91.90;;;;;;4979461;28;20502;-59
2022/01/25 05:23:53;;;;;;;53.97;29.35;;;5.70;91.90;;;;;;4981662;28;20050;-59
2022/01/25 05:26:20;;;;;;;51.78;30.33;;;5.70;91.90;;;;;;4980899;28;21224;-59
2022/01/25 05:28:48;;;;;;;50.63;29.63;;;5.70;91.90;;;;;;4979882;28;20102;-59
2022/01/25 05:31:15;;;;;;;56.45;30.13;;;5.70;91.90;;;;;;4980961;28;20054;-59
2022/01/25 05:33:42;;;;;;;60.08;31.50;;;5.70;91.90;;;;;;4980398;28;20061;-59
2022/01/25 05:36:09;;;;;;;53.72;29.85;;;5.70;91.90;;;;;;4981644;28;20061;-59
2022/01/25 05:38:36;;;;;;;51.03;29.77;;;5.70;91.90;;;;;;4980077;28;20054;-59
2022/01/25 05:41:04;;;;;;;51.00;29.77;;;5.70;91.90;;;;;;4981404;28;20051;-59
2022/01/25 05:46:20;;;;;;;56.08;32.72;;;5.70;91.90;;;;;;4981237;28;20046;-59
2022/01/25 05:48:48;;;;;;;49.53;30.13;;;5.70;91.90;;;;;;4980830;28;21110;-59
2022/01/25 05:51:15;;;;;;;53.92;31.30;;;5.70;91.90;;;;;;4980013;28;20057;-59
2022/01/25 05:53:42;;;;;;;55.60;30.65;;;5.70;91.80;;;;;;4981066;28;20058;-61
2022/01/25 05:56:10;;;;;;;53.10;30.48;;;5.70;91.80;;;;;;4981296;28;20057;-60
2022/01/25 05:58:37;;;;;;;52.55;31.67;;;5.60;91.80;;;;;;4980440;28;20203;-61
2022/01/25 06:01:04;;;;;;;52.75;30.13;;;5.60;91.90;;;;;;4979808;28;20065;-61
2022/01/25 06:03:32;;;;;;;54.08;31.90;;;5.70;92.00;;;;;;4979474;28;20062;-61
2022/01/25 06:05:59;;;;;;;52.97;31.08;;;5.60;92.00;;;;;;4980742;28;20177;-58
2022/01/25 06:08:26;;;;;;;53.50;29.25;;;5.60;92.00;;;;;;4979012;28;20054;-58
2022/01/25 06:10:52;;;;;;;52.30;30.67;;;5.70;92.10;;;;;;4979758;28;20066;-58
2022/01/25 06:13:19;;;;;;;54.70;31.75;;;5.60;92.10;;;;;;4979860;28;20050;-58
2022/01/25 06:15:46;;;;;;;47.13;29.05;;;5.60;92.10;;;;;;4983819;28;20061;-58
2022/01/25 06:18:13;;;;;;;53.85;29.80;;;5.70;92.10;;;;;;4983027;28;20054;-58
2022/01/25 06:20:41;;;;;;;56.58;31.40;;;5.70;92.10;;;;;;4984296;28;20055;-58
2022/01/25 06:23:08;;;;;;;52.58;30.90;;;5.70;92.20;;;;;;4982244;28;20051;-58
2022/01/25 06:25:35;;;;;;;52.38;30.00;;;5.70;92.20;;;;;;4983903;28;20054;-58
2022/01/25 06:28:02;;;;;;;53.33;31.55;;;5.70;92.10;;;;;;4982330;28;20054;-58
2022/01/25 06:30:29;;;;;;;50.60;30.23;;;5.70;92.10;;;;;;4983840;28;20054;-58
2022/01/25 06:32:56;;;;;;;60.85;31.00;;;5.70;92.10;;;;;;4983591;28;20050;-58
2022/01/25 06:35:23;;;;;;;55.28;31.02;;;5.60;92.20;;;;;;4982810;28;20061;-58
2022/01/25 06:37:51;;;;;;;52.58;29.15;;;5.60;92.20;;;;;;4982892;28;20050;-59
2022/01/25 06:40:18;;;;;;;52.00;30.63;;;5.60;92.10;;;;;;4982789;28;20050;-58
2022/01/25 06:42:45;;;;;;;52.63;31.40;;;5.60;92.20;;;;;;4983110;28;20137;-58
2022/01/25 06:45:15;;;;;;;56.33;30.42;;;5.60;92.20;;;;;;4983804;28;20050;-58
2022/01/25 06:47:45;;;;;;;57.15;31.92;;;5.60;92.20;;;;;;4980202;28;20065;-58
2022/01/25 06:50:13;;;;;;;54.15;32.22;;;5.60;92.30;;;;;;4983498;28;20054;-59
2022/01/25 06:52:41;;;;;;;56.65;31.52;;;5.60;92.30;;;;;;4982645;28;20065;-58
2022/01/25 06:55:12;;;;;;;57.03;32.72;;;5.50;92.30;;;;;;4983073;28;20100;-58
2022/01/25 06:57:39;;;;;;;54.00;31.25;;;5.50;92.40;;;;;;4980602;28;20061;-58
2022/01/25 07:00:09;;;;;;;57.05;32.63;;;5.50;92.40;;;;;;4982715;28;20055;-58
2022/01/25 07:02:35;;;;;;;52.97;31.88;;;5.50;92.50;;;;;;4982076;28;20054;-58
2022/01/25 07:05:03;;;;;;;57.70;32.80;;;5.50;92.50;;;;;;4983086;28;20054;-59
2022/01/25 07:07:30;;;;;;;57.88;33.15;;;5.50;92.50;;;;;;4981589;28;22328;-59
2022/01/25 07:09:57;;;;;;;58.45;31.98;;;5.50;92.50;;;;;;4981980;28;20057;-60
2022/01/25 07:12:25;;;;;;;57.58;32.33;;;5.50;92.60;;;;;;4981826;28;20065;-60
2022/01/25 07:14:52;;;;;;;55.80;31.92;;;5.50;92.60;;;;;;4982356;28;20046;-59
2022/01/25 07:17:20;;;;;;;54.53;32.45;;;5.50;92.60;;;;;;4980908;28;20051;-60
2022/01/25 07:19:48;;;;;;;55.75;32.85;;;5.50;92.70;;;;;;4979986;28;20098;-60
2022/01/25 07:22:15;;;;;;;56.25;33.40;;;5.40;92.60;;;;;;4981931;28;20077;-60
2022/01/25 07:24:42;;;;;;;57.65;32.90;;;5.40;92.70;;;;;;4982511;28;20055;-60
2022/01/25 07:27:09;;;;;;;58.20;32.53;;;5.40;92.70;;;;;;4980438;28;20069;-60
2022/01/25 07:29:37;;;;;;;59.17;32.63;;;5.40;92.70;;;;;;4982217;28;20071;-61
2022/01/25 07:32:05;;;;;;;55.20;31.85;;;5.40;92.80;;;;;;4982339;28;20058;-60
2022/01/25 07:34:31;;;;;;;55.20;31.70;;;5.40;92.90;;;;;;4982075;28;20054;-61
2022/01/25 07:36:58;;;;;;;56.50;31.85;;;5.40;93.00;;;;;;4981356;28;20050;-60
2022/01/25 07:39:26;;;;;;;60.50;33.72;;;5.40;93.00;;;;;;4976293;28;20184;-61
2022/01/25 07:41:57;;;;;;;57.83;31.98;;;5.30;93.00;;;;;;4974578;28;20127;-60
2022/01/25 07:44:28;;;;;;;56.72;32.53;;;5.40;93.10;;;;;;4980971;28;20544;-60
2022/01/25 07:46:57;;;;;;;60.55;32.35;;;5.40;93.10;;;;;;4982168;28;20054;-60
2022/01/25 07:49:24;;;;;;;56.70;32.22;;;5.40;93.10;;;;;;4982510;28;20141;-60
2022/01/25 07:51:51;;;;;;;57.92;32.40;;;5.40;93.10;;;;;;4981369;28;20264;-60
2022/01/25 07:54:18;;;;;;;54.83;32.30;;;5.40;93.10;;;;;;4982509;28;20846;-60
2022/01/25 07:56:45;;;;;;;54.20;31.92;;;5.40;93.20;;;;;;4981157;28;20098;-61
2022/01/25 07:59:12;;;;;;;61.17;33.00;;;5.40;93.10;;;;;;4982139;28;20054;-60
2022/01/25 08:01:40;;;;;;;61.67;31.33;;;5.40;93.20;;;;;;4981283;28;21024;-60
2022/01/25 08:04:09;;;;;;;60.97;33.70;;;5.40;93.10;;;;;;4982573;28;20060;-60
2022/01/25 08:06:36;;;;;;;54.92;31.33;;;5.40;93.10;;;;;;4982144;28;20065;-60
2022/01/25 08:09:03;;;;;;;56.13;32.22;;;5.50;93.20;;;;;;4982074;28;20054;-60
2022/01/25 08:11:30;;;;;;;54.95;31.23;;;5.50;93.20;;;;;;4979665;28;20066;-60
2022/01/25 08:14:11;;;;;;;60.95;33.72;;;5.40;93.20;;;;;;4982719;28;20058;-60
2022/01/25 08:16:38;;;;;;;57.55;32.95;;;5.50;93.10;;;;;;4981384;28;20054;-60
2022/01/25 08:19:04;;;;;;;57.60;32.45;;;5.50;93.20;;;;;;4982474;28;20180;-59
2022/01/25 08:21:33;;;;;;;56.33;30.95;;;5.50;93.20;;;;;;4981058;28;20058;-61
2022/01/25 08:24:00;;;;;;;61.10;33.67;;;5.50;93.20;;;;;;4980780;28;20089;-60
2022/01/25 08:26:26;;;;;;;56.22;32.42;;;5.50;93.20;;;;;;4980052;28;20054;-60
2022/01/25 08:28:53;;;;;;;56.15;32.72;;;5.50;93.30;;;;;;4981169;28;20140;-60
2022/01/25 08:31:20;;;;;;;58.53;31.63;;;5.50;93.30;;;;;;4980471;28;20055;-61
2022/01/25 08:33:48;;;;;;;61.72;33.00;;;5.50;93.30;;;;;;4981954;28;20085;-61
2022/01/25 08:36:15;;;;;;;58.08;31.70;;;5.50;93.30;;;;;;4981122;28;20057;-61
2022/01/25 08:38:43;;;;;;;58.33;32.80;;;5.50;93.30;;;;;;4982069;28;20061;-60
2022/01/25 08:41:10;;;;;;;53.10;30.50;;;5.60;93.30;;;;;;4981356;28;20058;-60
2022/01/25 08:43:37;;;;;;;54.13;32.63;;;5.60;93.30;;;;;;4981318;28;20059;-60
2022/01/25 08:46:04;;;;;;;54.80;31.17;;;5.60;93.30;;;;;;4981474;28;20062;-60
2022/01/25 08:48:31;;;;;;;60.67;32.30;;;5.60;93.40;;;;;;4980752;28;20188;-60
2022/01/25 08:50:58;;;;;;;51.50;30.58;;;5.70;93.30;;;;;;4981999;28;20054;-60
2022/01/25 08:53:25;;;;;;;58.13;33.35;;;5.70;93.50;;;;;;4980862;28;22053;-60
2022/01/25 08:55:53;;;;;;;60.95;34.20;;;5.70;93.20;;;;;;4980234;28;20055;-60
2022/01/25 08:58:20;;;;;;;56.08;32.55;;;5.70;93.30;;;;;;4980057;28;20141;-60
2022/01/25 09:00:47;;;;;;;58.15;32.50;;;5.70;93.30;;;;;;4979483;28;20060;-60
2022/01/25 09:03:14;;;;;;;61.63;33.88;;;5.70;93.20;;;;;;4981179;28;20051;-60
2022/01/25 09:05:41;;;;;;;55.72;31.15;;;5.70;93.20;;;;;;4981887;28;20061;-60
2022/01/25 09:08:09;;;;;;;57.67;32.60;;;5.70;93.30;;;;;;4980862;28;20050;-60
2022/01/25 09:10:36;;;;;;;55.00;32.08;;;5.70;93.40;;;;;;4981177;28;20058;-60
2022/01/25 09:13:05;;;;;;;55.20;31.48;;;5.70;93.40;;;;;;4981329;28;20054;-60
2022/01/25 09:15:31;;;;;;;61.90;33.55;;;5.70;93.30;;;;;;4981201;28;20057;-60
2022/01/25 09:17:58;;;;;;;57.17;32.08;;;5.70;93.40;;;;;;4981224;28;20051;-60
2022/01/25 09:20:26;;;;;;;56.80;32.50;;;5.70;93.30;;;;;;4981720;28;20061;-60
2022/01/25 09:22:52;;;;;;;61.35;34.08;;;5.70;93.30;;;;;;4981882;28;20441;-60
2022/01/25 09:25:19;;;;;;;56.42;32.50;;;5.70;93.40;;;;;;4980698;28;20054;-60
2022/01/25 09:27:46;;;;;;;54.22;32.25;;;5.70;93.40;;;;;;4980324;28;20069;-60
2022/01/25 09:30:15;;;;;;;52.33;30.75;;;5.70;93.40;;;;;;4981053;28;20058;-60
2022/01/25 09:32:42;;;;;;;54.92;32.15;;;5.80;93.40;;;;;;4981365;28;20065;-61
2022/01/25 09:35:09;;;;;;;56.28;31.05;;;5.80;93.40;;;;;;4981479;28;20072;-61
2022/01/25 09:37:36;;;;;;;56.95;31.15;;;5.80;93.50;;;;;;4981330;28;20058;-61
2022/01/25 09:40:03;;;;;;;56.47;32.22;;;5.80;93.40;;;;;;4981408;28;20193;-61
2022/01/25 09:42:31;;;;;;;59.08;32.67;;;5.80;93.40;;;;;;4980085;28;20057;-61
2022/01/25 09:44:59;;;;;;;53.45;31.73;;;6.10;93.50;;;;;;4980999;28;20201;-61
2022/01/25 09:47:27;;;;;;;57.65;32.63;;;5.90;93.50;;;;;;4980441;28;20061;-61
2022/01/25 09:49:55;;;;;;;59.00;32.88;;;5.80;93.50;;;;;;4982527;28;20157;-61
2022/01/25 09:52:23;;;;;;;58.95;32.22;;;5.90;93.50;;;;;;4982940;28;20494;-61
2022/01/25 09:54:54;;;;;;;61.08;32.55;;;5.90;93.50;;;;;;4981003;28;20161;-60
2022/01/25 09:57:21;;;;;;;56.35;31.85;;;5.90;93.40;;;;;;4980774;28;20058;-58
2022/01/25 09:59:48;;;;;;;57.83;33.67;;;5.90;93.40;;;;;;4983672;28;20150;-58
2022/01/25 10:02:47;;;;;;;56.47;31.23;;;5.90;93.40;;;;;;4982653;28;20061;-58
2022/01/25 10:05:23;;;;;;;58.35;32.63;;;5.90;93.50;;;;;;4984595;28;20193;-58
2022/01/25 10:08:00;;;;;;;56.17;31.42;;;5.90;93.50;;;;;;4984412;28;20096;-61
2022/01/25 10:10:29;;;;;;;55.28;31.38;;;5.90;93.60;;;;;;4983857;28;20133;-60
2022/01/25 10:13:07;;;;;;;62.03;32.95;;;5.90;93.60;;;;;;4983757;28;20059;-61
2022/01/25 10:15:34;;;;;;;57.22;33.05;;;5.80;93.50;;;;;;4984577;28;20097;-61
2022/01/25 10:18:05;;;;;;;55.40;32.53;;;5.90;93.80;;;;;;4983523;28;20058;-61
2022/01/25 10:20:34;;;;;;;57.88;33.17;;;5.90;93.50;;;;;;4984318;28;20054;-61
2022/01/25 10:23:09;;;;;;;56.60;31.33;;;5.90;93.60;;;;;;4984189;28;21994;-61
2022/01/25 10:25:38;;;;;;;57.58;34.17;;;5.90;93.50;;;;;;4983763;28;20849;-60
2022/01/25 10:28:11;;;;;;;57.72;32.45;;;5.90;93.50;;;;;;4983130;28;20058;-61
2022/01/25 10:30:47;;;;;;;59.05;33.47;;;5.90;93.50;;;;;;4984089;28;20050;-61
2022/01/25 10:33:24;;;;;;;55.72;32.75;;;5.90;93.50;;;;;;4982702;28;20449;-61
2022/01/25 10:35:51;;;;;;;56.95;31.60;;;5.90;93.60;;;;;;4982846;28;20058;-60
2022/01/25 10:38:19;;;;;;;55.88;32.50;;;5.90;93.60;;;;;;4983688;28;20050;-61
2022/01/25 10:40:54;;;;;;;58.03;31.65;;;5.90;93.70;;;;;;4983787;28;20046;-61
2022/01/25 10:43:22;;;;;;;53.17;32.35;;;5.90;93.70;;;;;;4983223;28;20058;-61
2022/01/25 10:46:23;;;;;;;59.35;33.50;;;6.00;93.70;;;;;;4982888;28;20050;-61
2022/01/25 10:48:56;;;;;;;58.65;32.22;;;6.00;93.60;;;;;;4982315;28;20054;-61
2022/01/25 10:51:25;;;;;;;58.45;32.97;;;5.90;93.60;;;;;;4983325;28;20061;-61
2022/01/25 10:54:06;;;;;;;56.30;32.65;;;5.90;93.70;;;;;;4983626;28;20058;-60
2022/01/25 10:56:39;;;;;;;56.03;32.00;;;5.90;93.80;;;;;;4982807;28;20065;-60
2022/01/25 10:59:08;;;;;;;53.47;31.70;;;5.90;93.80;;;;;;4981973;28;20083;-61
2022/01/25 11:01:37;;;;;;;60.72;32.65;;;5.90;93.70;;;;;;4983575;28;20392;-61
2022/01/25 11:04:09;;;;;;;62.05;33.13;;;6.00;93.80;;;;;;4982143;28;20057;-61
2022/01/25 11:06:37;;;;;;;57.58;32.50;;;6.00;93.80;;;;;;4978528;28;20050;-61
2022/01/25 11:09:06;;;;;;;59.35;32.13;;;5.90;93.80;;;;;;4981689;28;20057;-61
2022/01/25 11:11:38;;;;;;;57.80;32.28;;;6.00;93.80;;;;;;4981824;28;20051;-60
2022/01/25 11:16:53;;;;;;;60.88;33.90;;;5.90;93.80;;;;;;4983473;28;20508;-60
2022/01/25 11:19:22;;;;;;;58.63;32.33;;;5.90;93.90;;;;;;4982263;28;20526;-60
2022/01/25 11:21:50;;;;;;;62.83;34.58;;;6.00;93.90;;;;;;4982254;28;20182;-60
2022/01/25 11:24:19;;;;;;;59.05;33.42;;;6.00;94.00;;;;;;4983348;28;20092;-61
2022/01/25 11:26:49;;;;;;;65.60;35.38;;;6.00;93.90;;;;;;4982925;28;20062;-60
2022/01/25 11:29:16;;;;;;;61.88;35.25;;;6.00;94.00;;;;;;4982843;28;20058;-61
2022/01/25 11:31:49;;;;;;;56.63;31.88;;;6.00;94.10;;;;;;4983237;28;20054;-61
2022/01/25 11:34:18;;;;;;;59.70;31.90;;;6.00;94.20;;;;;;4982648;28;20151;-61
2022/01/25 11:36:52;;;;;;;58.97;32.85;;;6.00;94.20;;;;;;4982981;28;20065;-60
2022/01/25 11:39:21;;;;;;;58.70;31.02;;;6.00;94.20;;;;;;4982927;28;20057;-61
2022/01/25 11:41:48;;;;;;;59.85;32.53;;;6.00;94.20;;;;;;4981103;28;20046;-61
2022/01/25 11:44:19;;;;;;;61.15;33.45;;;6.00;94.20;;;;;;4982420;28;20059;-60
2022/01/25 11:46:51;;;;;;;61.90;32.35;;;6.00;94.40;;;;;;4981999;28;20418;-61
2022/01/25 11:49:20;;;;;;;56.83;31.65;;;6.00;94.30;;;;;;4983210;28;20050;-60
2022/01/25 11:52:11;;;;;;;57.17;31.80;;;6.00;94.40;;;;;;4981915;28;20059;-61
2022/01/25 11:54:38;;;;;;;62.97;32.50;;;5.80;94.40;;;;;;4982850;28;20073;-62
2022/01/25 11:57:13;;;;;;;64.63;34.97;;;5.90;94.40;;;;;;4982191;28;20046;-61
2022/01/25 11:59:41;;;;;;;61.50;33.70;;;6.00;94.60;;;;;;4982038;28;20063;-61
2022/01/25 12:02:08;;;;;;;58.40;32.40;;;6.00;94.50;;;;;;4982188;28;21311;-61
2022/01/25 12:04:43;;;;;;;61.55;33.33;;;6.00;94.50;;;;;;4981625;28;20066;-61
2022/01/25 12:07:24;;;;;;;66.38;34.13;;;6.00;94.40;;;;;;4980779;28;20057;-62
2022/01/25 12:10:03;;;;;;;57.88;33.38;;;5.90;94.40;;;;;;4981706;28;20060;-60
2022/01/25 12:12:30;;;;;;;58.67;32.92;;;5.90;94.40;;;;;;4979708;28;20069;-60
2022/01/25 12:14:57;;;;;;;58.05;33.60;;;5.90;94.60;;;;;;4981513;28;20050;-60
2022/01/25 12:17:25;;;;;;;55.95;32.22;;;5.90;94.60;;;;;;4981776;28;20061;-60
2022/01/25 12:19:55;;;;;;;62.47;33.53;;;6.00;94.80;;;;;;4982384;28;20050;-61
2022/01/25 12:22:37;;;;;;;57.33;32.50;;;6.00;94.50;;;;;;4981925;28;20057;-61
2022/01/25 12:25:18;;;;;;;60.95;32.33;;;6.00;94.50;;;;;;4983153;28;20047;-60
2022/01/25 12:27:53;;;;;;;61.88;33.50;;;5.90;94.40;;;;;;4982039;28;20099;-60
2022/01/25 12:30:32;;;;;;;59.35;33.22;;;5.90;94.40;;;;;;4983058;28;20133;-61
2022/01/25 12:33:02;;;;;;;58.22;32.42;;;6.00;94.50;;;;;;4982225;28;22216;-60
2022/01/25 12:35:45;;;;;;;61.03;33.53;;;6.00;94.50;;;;;;4982837;28;20061;-60
2022/01/25 12:38:19;;;;;;;57.25;32.33;;;6.00;94.50;;;;;;4981847;28;20054;-60
2022/01/25 12:40:58;;;;;;;59.78;33.03;;;6.00;94.40;;;;;;4981430;28;20073;-60
2022/01/25 12:43:28;;;;;;;60.78;32.47;;;6.00;94.40;;;;;;4981086;28;20952;-61
2022/01/25 12:45:58;;;;;;;61.28;33.67;;;5.90;94.50;;;;;;4982100;28;20061;-61
2022/01/25 12:48:28;;;;;;;57.60;31.52;;;5.90;94.50;;;;;;4980570;28;20963;-60
2022/01/25 12:50:59;;;;;;;62.90;33.10;;;5.90;94.50;;;;;;4981686;28;20065;-60
2022/01/25 12:53:31;;;;;;;60.47;34.45;;;6.00;94.50;;;;;;4981852;28;22170;-61
2022/01/25 12:56:00;;;;;;;56.67;30.55;;;6.00;94.50;;;;;;4981564;28;20066;-60
2022/01/25 12:58:31;;;;;;;58.38;32.90;;;6.00;94.50;;;;;;4980698;28;20378;-60
2022/01/25 13:01:01;;;;;;;65.30;34.47;;;6.00;94.50;;;;;;4981761;28;20047;-60
2022/01/25 13:03:32;;;;;;;62.30;32.28;;;6.00;94.50;;;;;;4980357;28;20057;-61
2022/01/25 13:06:03;;;;;;;61.20;33.15;;;6.00;94.60;;;;;;4981807;28;20414;-60
2022/01/25 13:08:36;;;;;;;58.15;33.13;;;6.00;94.50;;;;;;4981818;28;20058;-60
2022/01/25 13:11:29;;;;;;;55.15;30.55;;;6.10;94.40;;;;;;4981500;28;20551;-60
2022/01/25 13:14:02;;;;;;;53.00;30.53;;;6.10;94.40;;;;;;4981438;28;20046;-60
2022/01/25 13:16:46;;;;;;;57.17;30.80;;;6.00;94.30;;;;;;4978126;28;20058;-60
2022/01/25 13:19:15;;;;;;;61.40;31.75;;;6.10;94.30;;;;;;4979669;28;20430;-61
2022/01/25 13:21:45;;;;;;;61.30;32.42;;;6.10;94.30;;;;;;4977812;28;20094;-61
2022/01/25 13:24:18;;;;;;;58.60;32.70;;;6.10;94.30;;;;;;4977389;28;20050;-61
2022/01/25 13:26:53;;;;;;;62.15;34.22;;;6.10;94.30;;;;;;4980934;28;20587;-60
2022/01/25 13:32:13;;;;;;;56.38;32.03;;;6.10;94.30;;;;;;4981856;28;20152;-58
2022/01/25 13:34:40;;;;;;;55.78;31.05;;;6.10;94.30;;;;;;4979009;28;20058;-58
2022/01/25 13:37:19;;;;;;;65.82;34.70;;;6.10;94.40;;;;;;4981007;28;20065;-58
2022/01/25 13:39:58;;;;;;;57.17;31.90;;;6.10;94.30;;;;;;4981087;28;20054;-57
2022/01/25 13:42:32;;;;;;;59.08;32.45;;;6.10;94.30;;;;;;4978850;28;20065;-58
2022/01/25 13:48:01;;;;;;;61.20;33.67;;;6.00;94.30;;;;;;4980795;28;20054;-58
2022/01/25 13:50:31;;;;;;;57.28;32.42;;;6.00;94.40;;;;;;4981642;28;20058;-57
2022/01/25 13:52:58;;;;;;;54.33;31.00;;;6.00;94.40;;;;;;4980794;28;20058;-57
2022/01/25 13:55:27;;;;;;;56.60;31.33;;;6.00;94.40;;;;;;4976429;28;20481;-58
2022/01/25 13:57:55;;;;;;;60.92;31.02;;;6.00;94.50;;;;;;4980032;28;20066;-57
2022/01/25 14:00:23;;;;;;;57.72;32.80;;;6.00;94.60;;;;;;4980495;28;20046;-58
2022/01/25 14:02:51;;;;;;;65.90;32.30;;;6.00;94.50;;;;;;4980192;28;20056;-57
2022/01/25 14:05:19;;;;;;;61.30;32.72;;;6.00;94.50;;;;;;4980250;28;20047;-58
2022/01/25 14:07:50;;;;;;;56.92;32.42;;;6.00;94.50;;;;;;4980085;28;20064;-58
2022/01/25 14:10:22;;;;;;;58.20;32.22;;;6.00;94.50;;;;;;4980784;28;20050;-58
2022/01/25 14:21:42;;;;;;;55.25;30.63;;;6.00;94.50;;;;;;4977703;28;20050;-58
2022/01/25 14:24:10;;;;;;;57.75;31.88;;;5.90;94.40;;;;;;4979425;28;20054;-58
2022/01/25 14:26:37;;;;;;;59.78;33.45;;;5.90;94.50;;;;;;4979785;28;20055;-57
2022/01/25 14:29:17;;;;;;;57.38;31.60;;;5.90;94.60;;;;;;4980340;28;20478;-58
2022/01/25 14:31:46;;;;;;;63.08;33.17;;;6.00;94.50;;;;;;4980660;28;20057;-58